Language selection

My Weather Profile Weather Topics  | 

Explorer - northwestern half: Past 24 Hour Conditions

 

Dixon Entrance Central - 46145

06:00 PM PST 21 January 2022Buoy position: 54.22N 132.27W
Disclaimer

This table is a summary of hourly weather conditions for the past 24 hours.
Please note that these observations might not always be representative of weather conditions over their associated marine area.

Date / Time
(PST)
Wind(knots) Wave height(m) Wave period(s) Pressure(kPa) Air tempC) Water tempC)
21 January 2022
18:00 SE 17 gust 22 2.5 11.0 102.8 7 6
17:00 SE 16 gust 19 2.3 11.0 102.8 7 6
16:00 SSE 16 gust 19 2.4 11.0 102.7 7 6
15:00 SE 19 gust 23 2.4 11.0 102.7 7 6
14:00 SE 19 gust 23 2.2 10.0 102.7 7 6
13:00 SE 19 gust 23 2.2 10.0 102.7 7 6
12:00 SE 22 gust 25 2.1 11.0 102.6 7 6
11:00 SE 19 gust 23 2.0 10.0 102.6 7 6
10:00 SE 19 gust 23 2.3 9.0 102.6 7 6
9:00 SE 19 gust 25 2.1 11.0 102.6 7 6
8:00 SSE 17 gust 22 1.9 12.0 102.6 7 6
7:00 SSE 17 gust 19 1.9 10.0 102.6 7 6
6:00 SSE 17 gust 22 2.0 10.0 102.6 6 6
5:00 SSE 19 gust 25 1.9 12.0 102.5 7 6
4:00 SE 19 gust 23 1.9 11.0 102.5 6 6
3:00 SE 19 gust 25 1.7 14.0 102.5 6 6
2:00 SE 16 gust 19 1.6 12.0 102.6 6 6
1:00 SE 12 gust 13 1.5 14.0 102.6 6 6
0:00 SSE 12 gust 13 1.4 14.0 102.7 6 6
20 January 2022
23:00 SSE 13 gust 16 1.7 13.0 102.6 6 6
22:00 SE 13 gust 17 1.6 11.0 102.6 6 6
21:00 SE 10 gust 13 1.6 14.0 102.6 6 6
20:00 E 12 gust 13 1.5 15.0 102.4 6 6
19:00 SW 10 gust 13 1.6 13.0 102.6 6 6
18:00 SW 12 gust 13 1.6 15.0 102.5 6 6

Zoom-in to make a selection

Map of Pacific - North Coast marine weather areas Middle Nomad - 46004 South Nomad - 46036 Dixon Entrance Central - 46145 South Moresby - 46147 Nanakwa Shoal - 46181 North Hecate Strait - 46183 North Nomad - 46184 South Hecate Strait - 46185 West Sea Otter - 46204 West Dixon Entrance - 46205 East Dellwood - 46207 West Moresby - 46208 Sartine Island Cape St.James Kindakun Rocks Langara Island Masset Municipal Airport Rose Spit Sandspit Airport Bella Bella Airport Bella Coola Airport Bonilla Island Cathedral Point Cumshewa Island Grey Islet Holland Rock Lucy Islands Lightstation Prince Rupert Airport
Legend:
buoy Buoy
land station Land Station

Pacific - North Coast Area

Another Region

What we are doing

Features

Hello Weather

Hello Weather: our upgraded telephone weather service is here. 1-833-794-3556 or 1-833-79HELLO.

Date modified: